Time;durP1;ratioP1;P1;durP2;ratioP2;P2;SDS_P1;SDS_P2;PMS_P1;PMS_P2;Temp;Humidity;BMP_temperature;BMP_pressure;BME280_temperature;BME280_humidity;BME280_pressure;Samples;Min_cycle;Max_cycle;Signal;HPM_P1;HPM_P2
2023/08/11 00:01:52;;;;;;;11.60;11.10;;;;;;;;;;5072167;28;20024;-59
2023/08/11 00:04:18;;;;;;;10.88;10.38;;;;;;;;;;5071477;28;20094;-59
2023/08/11 00:06:44;;;;;;;11.00;10.50;;;;;;;;;;5073316;28;20024;-58
2023/08/11 00:09:11;;;;;;;10.70;10.20;;;;;;;;;;5071800;28;20087;-58
2023/08/11 00:11:36;;;;;;;11.40;10.90;;;;;;;;;;5071353;28;20020;-58
2023/08/11 00:14:02;;;;;;;11.15;10.65;;;;;;;;;;5071978;28;20031;-58
2023/08/11 00:16:27;;;;;;;11.35;10.85;;;;;;;;;;5071464;28;20095;-58
2023/08/11 00:18:52;;;;;;;11.30;10.80;;;;;;;;;;5071752;28;20020;-58
2023/08/11 00:21:18;;;;;;;11.25;10.75;;;;;;;;;;5071457;28;20048;-58
2023/08/11 00:23:43;;;;;;;11.15;10.65;;;;;;;;;;5073185;28;20032;-58
2023/08/11 00:26:10;;;;;;;11.45;10.95;;;;;;;;;;5070544;28;20533;-58
2023/08/11 00:28:35;;;;;;;10.95;10.45;;;;;;;;;;5072004;28;20035;-58
2023/08/11 00:31:00;;;;;;;11.27;10.77;;;;;;;;;;5069589;28;20024;-60
2023/08/11 00:33:26;;;;;;;11.07;10.57;;;;;;;;;;5070370;28;20032;-58
2023/08/11 00:35:51;;;;;;;11.30;10.80;;;;;;;;;;5075021;28;20035;-58
2023/08/11 00:38:16;;;;;;;10.82;10.32;;;;;;;;;;5072724;28;20100;-58
2023/08/11 00:40:42;;;;;;;11.30;10.80;;;;;;;;;;5071071;28;20432;-58
2023/08/11 00:43:07;;;;;;;11.05;10.55;;;;;;;;;;5072089;28;20021;-57
2023/08/11 00:45:33;;;;;;;11.10;10.60;;;;;;;;;;5070708;28;20106;-58
2023/08/11 00:47:59;;;;;;;10.90;10.40;;;;;;;;;;5071717;28;20553;-59
2023/08/11 00:50:24;;;;;;;11.73;11.13;;;;;;;;;;5070044;28;20027;-58
2023/08/11 00:52:50;;;;;;;11.95;11.35;;;;;;;;;;5071448;28;20467;-58
2023/08/11 00:55:18;;;;;;;11.23;10.73;;;;;;;;;;5071667;28;20013;-59
2023/08/11 00:57:44;;;;;;;11.30;10.80;;;;;;;;;;5069841;28;20043;-58
2023/08/11 01:00:12;;;;;;;11.32;10.82;;;;;;;;;;5070912;28;20483;-58
2023/08/11 01:02:41;;;;;;;11.20;10.70;;;;;;;;;;5071247;28;20058;-58
2023/08/11 01:05:08;;;;;;;10.90;10.40;;;;;;;;;;5075333;28;20099;-59
2023/08/11 01:07:37;;;;;;;11.10;10.60;;;;;;;;;;5072989;28;20020;-60
2023/08/11 01:10:12;;;;;;;11.13;10.63;;;;;;;;;;5074589;28;20095;-58
2023/08/11 01:12:37;;;;;;;11.05;10.55;;;;;;;;;;5073874;28;20028;-58
2023/08/11 01:15:06;;;;;;;11.90;11.30;;;;;;;;;;5070374;28;20526;-60
2023/08/11 01:17:32;;;;;;;10.95;10.45;;;;;;;;;;5068353;28;20257;-59
2023/08/11 01:19:58;;;;;;;10.73;10.23;;;;;;;;;;5070583;28;20555;-59
2023/08/11 01:22:26;;;;;;;12.02;11.43;;;;;;;;;;5071018;28;20028;-59
2023/08/11 01:24:51;;;;;;;11.32;10.82;;;;;;;;;;5069663;28;20032;-59
2023/08/11 01:27:18;;;;;;;10.98;10.48;;;;;;;;;;5074652;28;20394;-60
2023/08/11 01:29:43;;;;;;;10.80;10.30;;;;;;;;;;5073765;28;20031;-59
2023/08/11 01:32:08;;;;;;;11.80;11.20;;;;;;;;;;5071611;28;20395;-58
2023/08/11 01:34:34;;;;;;;11.20;10.70;;;;;;;;;;5074616;28;20032;-60
2023/08/11 01:37:00;;;;;;;11.73;11.13;;;;;;;;;;5068305;28;20102;-58
2023/08/11 01:39:26;;;;;;;11.70;11.10;;;;;;;;;;5068308;28;20024;-57
2023/08/11 01:41:52;;;;;;;10.93;10.43;;;;;;;;;;5069271;28;20035;-59
2023/08/11 01:44:17;;;;;;;10.98;10.48;;;;;;;;;;5071005;28;20574;-59
2023/08/11 01:46:43;;;;;;;10.90;10.40;;;;;;;;;;5069646;28;20132;-58
2023/08/11 01:49:10;;;;;;;10.98;10.48;;;;;;;;;;5053107;28;20028;-59
2023/08/11 01:51:36;;;;;;;11.02;10.52;;;;;;;;;;5068307;28;20023;-59
2023/08/11 01:54:02;;;;;;;10.90;10.40;;;;;;;;;;5068348;28;20109;-59
2023/08/11 01:56:28;;;;;;;10.73;10.23;;;;;;;;;;5070550;28;20048;-59
2023/08/11 01:58:53;;;;;;;10.60;10.10;;;;;;;;;;5071765;28;20509;-59
2023/08/11 02:01:18;;;;;;;10.95;10.45;;;;;;;;;;5074832;28;20020;-58
2023/08/11 02:03:43;;;;;;;11.02;10.52;;;;;;;;;;5070586;28;20067;-58
2023/08/11 02:06:09;;;;;;;11.38;10.88;;;;;;;;;;5070831;28;20063;-58
2023/08/11 02:08:35;;;;;;;10.73;10.23;;;;;;;;;;5070419;28;20030;-59
2023/08/11 02:11:01;;;;;;;11.05;10.55;;;;;;;;;;5069130;28;20028;-58
2023/08/11 02:13:26;;;;;;;10.80;10.30;;;;;;;;;;5051861;28;20050;-57
2023/08/11 02:15:51;;;;;;;10.68;10.18;;;;;;;;;;5069386;28;20107;-58
2023/08/11 02:18:16;;;;;;;11.10;10.60;;;;;;;;;;5069523;28;20012;-58
2023/08/11 02:20:42;;;;;;;10.90;10.40;;;;;;;;;;5070353;28;20024;-58
2023/08/11 02:23:08;;;;;;;11.00;10.50;;;;;;;;;;5070650;28;20024;-58
2023/08/11 02:25:33;;;;;;;11.00;10.50;;;;;;;;;;5070015;28;20028;-58
2023/08/11 02:27:59;;;;;;;11.00;10.50;;;;;;;;;;5069135;28;20039;-58
2023/08/11 02:30:29;;;;;;;11.13;10.63;;;;;;;;;;5070460;28;20029;-58
2023/08/11 02:32:54;;;;;;;11.65;11.07;;;;;;;;;;5069910;28;20111;-59
2023/08/11 02:35:19;;;;;;;11.10;10.60;;;;;;;;;;5069939;28;20016;-58
2023/08/11 02:37:45;;;;;;;11.27;10.77;;;;;;;;;;5069804;28;20032;-59
2023/08/11 02:40:10;;;;;;;10.82;10.32;;;;;;;;;;5070440;28;20021;-58
2023/08/11 02:42:42;;;;;;;11.18;10.68;;;;;;;;;;5069152;28;20094;-58
2023/08/11 02:45:10;;;;;;;10.80;10.30;;;;;;;;;;5067976;28;20029;-58
2023/08/11 02:47:35;;;;;;;11.10;10.60;;;;;;;;;;5068259;28;20476;-58
2023/08/11 02:50:01;;;;;;;11.25;10.75;;;;;;;;;;5071466;28;20059;-58
2023/08/11 02:52:26;;;;;;;10.90;10.40;;;;;;;;;;5074173;28;20033;-58
2023/08/11 02:54:51;;;;;;;10.63;10.13;;;;;;;;;;5068101;28;20039;-58
2023/08/11 02:57:17;;;;;;;10.85;10.35;;;;;;;;;;5069334;28;20483;-59
2023/08/11 02:59:44;;;;;;;11.32;10.82;;;;;;;;;;5069753;28;20098;-58
2023/08/11 03:02:10;;;;;;;11.07;10.57;;;;;;;;;;5069916;28;20032;-58
2023/08/11 03:04:36;;;;;;;11.20;10.70;;;;;;;;;;5069863;28;20025;-58
2023/08/11 03:07:05;;;;;;;11.80;11.20;;;;;;;;;;5066260;28;20090;-58
2023/08/11 03:09:30;;;;;;;11.77;11.18;;;;;;;;;;5070253;28;20518;-58
2023/08/11 03:11:56;;;;;;;12.05;11.45;;;;;;;;;;5072502;28;20044;-59
2023/08/11 03:14:21;;;;;;;11.55;11.05;;;;;;;;;;5069549;28;20388;-58
2023/08/11 03:16:46;;;;;;;11.48;10.98;;;;;;;;;;5073194;28;20029;-59
2023/08/11 03:19:11;;;;;;;11.30;10.80;;;;;;;;;;5075660;28;20020;-59
2023/08/11 03:21:37;;;;;;;11.20;10.70;;;;;;;;;;5074730;28;20089;-58
2023/08/11 03:24:02;;;;;;;11.27;10.77;;;;;;;;;;5077058;28;20464;-58
2023/08/11 03:26:27;;;;;;;11.20;10.70;;;;;;;;;;5074167;28;20463;-59
2023/08/11 03:28:53;;;;;;;11.10;10.60;;;;;;;;;;5074400;28;20558;-58
2023/08/11 03:31:19;;;;;;;11.40;10.90;;;;;;;;;;5073422;28;20383;-58
2023/08/11 03:33:44;;;;;;;11.75;11.15;;;;;;;;;;5067961;28;20372;-60
2023/08/11 03:36:09;;;;;;;11.30;10.80;;;;;;;;;;5072532;28;20020;-58
2023/08/11 03:38:35;;;;;;;11.30;10.80;;;;;;;;;;5072099;28;20023;-59
2023/08/11 03:41:01;;;;;;;11.30;10.80;;;;;;;;;;5073309;28;20020;-59
2023/08/11 03:43:26;;;;;;;11.25;10.75;;;;;;;;;;5072962;28;20035;-59
2023/08/11 03:45:51;;;;;;;10.90;10.40;;;;;;;;;;5071404;28;20107;-59
2023/08/11 03:48:17;;;;;;;10.98;10.48;;;;;;;;;;5072454;28;20476;-58
2023/08/11 03:50:42;;;;;;;11.13;10.63;;;;;;;;;;5072095;28;20063;-59
2023/08/11 03:53:08;;;;;;;11.00;10.50;;;;;;;;;;5071452;28;20499;-58
2023/08/11 03:55:33;;;;;;;12.20;11.60;;;;;;;;;;5073148;28;20031;-58
2023/08/11 03:57:58;;;;;;;11.32;10.82;;;;;;;;;;5072510;28;20024;-59
2023/08/11 04:00:24;;;;;;;11.60;11.10;;;;;;;;;;5072123;28;20075;-59
2023/08/11 04:02:49;;;;;;;11.65;11.15;;;;;;;;;;5068005;28;20386;-59
2023/08/11 04:05:15;;;;;;;13.20;12.60;;;;;;;;;;5055904;28;20100;-60
2023/08/11 04:07:41;;;;;;;13.15;12.55;;;;;;;;;;5060059;28;20380;-59
2023/08/11 04:10:06;;;;;;;11.57;11.07;;;;;;;;;;5054201;28;20017;-58
2023/08/11 04:12:32;;;;;;;11.32;10.82;;;;;;;;;;5055384;28;20025;-59
2023/08/11 04:14:58;;;;;;;11.60;11.10;;;;;;;;;;5061272;28;20031;-59
2023/08/11 04:17:23;;;;;;;11.65;11.15;;;;;;;;;;5057382;28;20044;-59
2023/08/11 04:19:48;;;;;;;11.27;10.77;;;;;;;;;;5061211;28;20680;-58
2023/08/11 04:22:14;;;;;;;11.60;11.10;;;;;;;;;;5062016;28;20469;-59
2023/08/11 04:24:39;;;;;;;11.90;11.40;;;;;;;;;;5058710;28;20036;-59
2023/08/11 04:27:05;;;;;;;11.43;10.93;;;;;;;;;;5057852;28;20017;-58
2023/08/11 04:29:30;;;;;;;11.52;11.02;;;;;;;;;;5058071;28;20546;-59
2023/08/11 04:31:55;;;;;;;11.60;11.10;;;;;;;;;;5064643;28;20032;-60
2023/08/11 04:34:20;;;;;;;11.90;11.40;;;;;;;;;;5054740;28;20412;-59
2023/08/11 04:36:46;;;;;;;11.23;10.73;;;;;;;;;;5062792;28;20260;-60
2023/08/11 04:39:11;;;;;;;11.35;10.85;;;;;;;;;;5055304;28;20312;-59
2023/08/11 04:41:37;;;;;;;12.10;11.60;;;;;;;;;;5055268;28;20025;-59
2023/08/11 04:44:04;;;;;;;11.25;10.75;;;;;;;;;;5049312;28;20029;-59
2023/08/11 04:46:30;;;;;;;11.30;10.80;;;;;;;;;;5058378;28;20025;-59
2023/08/11 04:48:55;;;;;;;11.68;11.18;;;;;;;;;;5060667;28;20028;-60
2023/08/11 04:51:20;;;;;;;11.57;11.07;;;;;;;;;;5058866;28;20065;-59
2023/08/11 04:53:45;;;;;;;11.60;11.10;;;;;;;;;;5060692;28;20102;-59
2023/08/11 04:56:11;;;;;;;11.90;11.40;;;;;;;;;;5062139;28;20080;-58
2023/08/11 04:58:38;;;;;;;11.35;10.85;;;;;;;;;;5057716;28;20254;-59
2023/08/11 05:01:04;;;;;;;11.65;11.15;;;;;;;;;;5059566;28;20430;-59
2023/08/11 05:03:29;;;;;;;11.70;11.20;;;;;;;;;;5051139;28;20053;-59
2023/08/11 05:05:55;;;;;;;11.70;11.20;;;;;;;;;;5062579;28;20039;-60
2023/08/11 05:08:20;;;;;;;11.52;11.02;;;;;;;;;;5056155;28;20017;-59
2023/08/11 05:10:45;;;;;;;11.43;10.93;;;;;;;;;;5063460;28;20676;-59
2023/08/11 05:13:10;;;;;;;11.25;10.75;;;;;;;;;;5060384;28;20452;-58
2023/08/11 05:15:37;;;;;;;11.50;11.00;;;;;;;;;;5057278;28;20048;-59
2023/08/11 05:18:03;;;;;;;11.50;11.00;;;;;;;;;;5061850;28;20075;-60
2023/08/11 05:20:29;;;;;;;11.57;11.07;;;;;;;;;;5056677;28;20024;-59
2023/08/11 05:22:54;;;;;;;11.93;11.43;;;;;;;;;;5056553;28;20029;-59
2023/08/11 05:25:20;;;;;;;11.50;11.00;;;;;;;;;;5065029;28;20036;-59
2023/08/11 05:27:45;;;;;;;11.50;11.00;;;;;;;;;;5066529;28;20032;-60
2023/08/11 05:30:11;;;;;;;11.48;10.98;;;;;;;;;;5067389;28;20433;-59
2023/08/11 05:32:36;;;;;;;11.52;11.02;;;;;;;;;;5057426;28;20953;-61
2023/08/11 05:35:02;;;;;;;11.20;10.70;;;;;;;;;;5057777;28;20029;-59
2023/08/11 05:37:28;;;;;;;11.32;10.82;;;;;;;;;;5059338;28;20029;-59
2023/08/11 05:39:53;;;;;;;11.43;10.93;;;;;;;;;;5059437;28;20024;-58
2023/08/11 05:42:19;;;;;;;11.60;11.10;;;;;;;;;;5057989;28;20044;-60
2023/08/11 05:44:44;;;;;;;11.48;10.98;;;;;;;;;;5056463;28;20025;-59
2023/08/11 05:47:09;;;;;;;11.45;10.95;;;;;;;;;;5051850;28;20021;-58
2023/08/11 05:49:35;;;;;;;11.30;10.80;;;;;;;;;;5056959;28;20052;-58
2023/08/11 05:52:00;;;;;;;11.38;10.88;;;;;;;;;;5055444;28;21759;-59
2023/08/11 05:54:25;;;;;;;11.35;10.85;;;;;;;;;;5055481;28;20025;-60
2023/08/11 05:56:52;;;;;;;11.23;10.73;;;;;;;;;;5051376;28;20025;-59
2023/08/11 05:59:18;;;;;;;10.90;10.40;;;;;;;;;;5058788;28;20024;-59
2023/08/11 06:01:44;;;;;;;11.15;10.65;;;;;;;;;;5053601;28;20016;-58
2023/08/11 06:04:09;;;;;;;11.32;10.82;;;;;;;;;;5044333;28;20077;-61
2023/08/11 06:06:34;;;;;;;11.15;10.65;;;;;;;;;;5046804;28;20515;-59
2023/08/11 06:09:00;;;;;;;11.40;10.90;;;;;;;;;;5040833;28;20028;-59
2023/08/11 06:11:25;;;;;;;11.30;10.80;;;;;;;;;;5041530;28;20262;-59
2023/08/11 06:13:51;;;;;;;11.27;10.77;;;;;;;;;;5048290;28;20082;-59
2023/08/11 06:16:16;;;;;;;11.13;10.63;;;;;;;;;;5050369;28;20528;-58
2023/08/11 06:18:42;;;;;;;11.20;10.70;;;;;;;;;;5051346;28;20025;-58
2023/08/11 06:21:07;;;;;;;11.38;10.88;;;;;;;;;;5050609;28;20246;-58
2023/08/11 06:23:32;;;;;;;11.32;10.82;;;;;;;;;;5056365;28;20021;-59
2023/08/11 06:25:58;;;;;;;11.30;10.80;;;;;;;;;;5048022;28;20071;-60
2023/08/11 06:28:23;;;;;;;11.13;10.63;;;;;;;;;;5050243;28;20051;-60
2023/08/11 06:30:49;;;;;;;11.03;10.53;;;;;;;;;;5050089;28;20083;-58
2023/08/11 06:33:14;;;;;;;11.23;10.73;;;;;;;;;;5052757;28;20315;-59
2023/08/11 06:35:40;;;;;;;11.18;10.68;;;;;;;;;;5049977;28;20454;-59
2023/08/11 06:38:05;;;;;;;11.35;10.85;;;;;;;;;;5048749;28;20020;-59
2023/08/11 06:40:30;;;;;;;11.17;10.67;;;;;;;;;;5050243;28;20032;-59
2023/08/11 06:42:56;;;;;;;11.10;10.60;;;;;;;;;;5031459;28;20025;-59
2023/08/11 06:45:21;;;;;;;11.17;10.67;;;;;;;;;;5049797;28;20021;-59
2023/08/11 06:47:46;;;;;;;11.18;10.68;;;;;;;;;;5047823;28;20036;-59
2023/08/11 06:50:12;;;;;;;11.05;10.55;;;;;;;;;;5051471;28;20025;-60
2023/08/11 06:52:37;;;;;;;11.43;10.93;;;;;;;;;;5053950;28;20468;-59
2023/08/11 06:55:03;;;;;;;11.18;10.68;;;;;;;;;;5053484;28;20124;-59
2023/08/11 06:57:31;;;;;;;11.30;10.80;;;;;;;;;;5054006;28;20017;-59
2023/08/11 06:59:56;;;;;;;11.52;11.02;;;;;;;;;;5051959;28;20100;-58
2023/08/11 07:02:22;;;;;;;11.30;10.80;;;;;;;;;;5056606;28;20044;-59
2023/08/11 07:04:47;;;;;;;11.07;10.57;;;;;;;;;;5076617;28;20054;-59
2023/08/11 07:07:13;;;;;;;11.15;10.65;;;;;;;;;;5072828;28;20257;-60
2023/08/11 07:09:38;;;;;;;11.13;10.63;;;;;;;;;;5072644;28;20039;-58
2023/08/11 07:12:04;;;;;;;11.57;11.07;;;;;;;;;;5073583;28;20108;-59
2023/08/11 07:14:29;;;;;;;11.27;10.77;;;;;;;;;;5069854;28;20055;-59
2023/08/11 07:16:55;;;;;;;11.20;10.70;;;;;;;;;;5072947;28;20519;-59
2023/08/11 07:19:20;;;;;;;11.23;10.73;;;;;;;;;;5071984;28;20328;-59
2023/08/11 07:21:45;;;;;;;11.50;11.00;;;;;;;;;;5073077;28;20031;-59
2023/08/11 07:24:11;;;;;;;11.33;10.83;;;;;;;;;;5072784;28;20032;-58
2023/08/11 07:26:36;;;;;;;11.25;10.75;;;;;;;;;;5073093;28;20629;-59
2023/08/11 07:29:02;;;;;;;11.43;10.93;;;;;;;;;;5071830;28;20061;-58
2023/08/11 07:31:27;;;;;;;11.25;10.75;;;;;;;;;;5073188;28;20025;-60
2023/08/11 07:33:52;;;;;;;11.40;10.90;;;;;;;;;;5073802;28;20021;-59
2023/08/11 07:36:18;;;;;;;11.40;10.90;;;;;;;;;;5073132;28;20031;-60
2023/08/11 07:38:43;;;;;;;11.35;10.85;;;;;;;;;;5072853;28;20028;-59
2023/08/11 07:41:08;;;;;;;11.30;10.80;;;;;;;;;;5072967;28;20028;-58
2023/08/11 07:43:33;;;;;;;11.40;10.90;;;;;;;;;;5071890;28;20039;-59
2023/08/11 07:45:59;;;;;;;11.20;10.70;;;;;;;;;;5069022;28;20029;-59
2023/08/11 07:48:24;;;;;;;11.23;10.73;;;;;;;;;;5072360;28;20308;-59
2023/08/11 07:50:49;;;;;;;11.63;11.13;;;;;;;;;;5071950;28;20020;-59
2023/08/11 07:53:15;;;;;;;11.20;10.70;;;;;;;;;;5072538;28;20347;-60
2023/08/11 07:55:41;;;;;;;11.53;11.03;;;;;;;;;;5072573;28;20258;-59
2023/08/11 07:58:06;;;;;;;11.23;10.73;;;;;;;;;;5072247;28;20250;-60
2023/08/11 08:00:31;;;;;;;11.35;10.85;;;;;;;;;;5074712;28;20020;-59
2023/08/11 08:02:58;;;;;;;11.53;11.03;;;;;;;;;;5074935;28;20049;-59
2023/08/11 08:05:23;;;;;;;11.68;11.18;;;;;;;;;;5074237;28;20024;-59
2023/08/11 08:07:49;;;;;;;11.60;11.10;;;;;;;;;;5072566;28;20028;-59
2023/08/11 08:10:14;;;;;;;11.70;11.20;;;;;;;;;;5074053;28;20084;-59
2023/08/11 08:12:41;;;;;;;11.65;11.15;;;;;;;;;;5070923;28;20506;-59
2023/08/11 08:15:08;;;;;;;11.40;10.90;;;;;;;;;;5072602;28;20047;-61
2023/08/11 08:17:33;;;;;;;11.73;11.23;;;;;;;;;;5074512;28;20099;-59
2023/08/11 08:19:59;;;;;;;11.80;11.30;;;;;;;;;;5074577;28;20146;-59
2023/08/11 08:22:24;;;;;;;11.77;11.27;;;;;;;;;;5072246;28;20024;-59
2023/08/11 08:24:50;;;;;;;12.02;11.52;;;;;;;;;;5072300;28;20028;-61
2023/08/11 08:27:17;;;;;;;11.52;11.02;;;;;;;;;;5073252;28;20055;-59
2023/08/11 08:29:42;;;;;;;11.90;11.40;;;;;;;;;;5079838;28;20107;-59
2023/08/11 08:32:08;;;;;;;11.80;11.30;;;;;;;;;;5073805;28;20052;-58
2023/08/11 08:34:33;;;;;;;11.90;11.40;;;;;;;;;;5069276;28;20024;-59
2023/08/11 08:36:58;;;;;;;11.90;11.40;;;;;;;;;;5074257;28;20036;-58
2023/08/11 08:39:24;;;;;;;12.70;12.10;;;;;;;;;;5072240;28;21184;-59
2023/08/11 08:41:50;;;;;;;11.43;10.93;;;;;;;;;;5071396;28;20331;-59
2023/08/11 08:44:16;;;;;;;11.80;11.30;;;;;;;;;;5057804;28;20441;-58
2023/08/11 08:46:42;;;;;;;11.52;11.02;;;;;;;;;;5071797;28;20084;-58
2023/08/11 08:49:18;;;;;;;11.18;10.68;;;;;;;;;;5072399;28;20027;-58
2023/08/11 08:51:44;;;;;;;11.70;11.20;;;;;;;;;;5072189;28;20050;-59
2023/08/11 08:54:09;;;;;;;11.20;10.70;;;;;;;;;;5071522;28;20032;-59
2023/08/11 08:56:36;;;;;;;11.50;11.00;;;;;;;;;;5070872;28;20021;-59
2023/08/11 08:59:01;;;;;;;11.10;10.60;;;;;;;;;;5071865;28;20048;-58
2023/08/11 09:01:26;;;;;;;11.40;10.90;;;;;;;;;;5073128;28;20059;-59
2023/08/11 09:03:52;;;;;;;11.50;11.00;;;;;;;;;;5051708;28;20131;-58
2023/08/11 09:06:18;;;;;;;11.63;11.13;;;;;;;;;;5070003;28;20036;-60
2023/08/11 09:08:45;;;;;;;11.73;11.23;;;;;;;;;;5070811;28;20021;-59
2023/08/11 09:11:10;;;;;;;12.30;11.75;;;;;;;;;;5070023;28;20040;-60
2023/08/11 09:13:37;;;;;;;11.95;11.45;;;;;;;;;;5070979;28;20055;-62
2023/08/11 09:16:02;;;;;;;11.70;11.20;;;;;;;;;;5070884;28;20100;-58
2023/08/11 09:18:28;;;;;;;11.75;11.25;;;;;;;;;;5069579;28;20535;-59
2023/08/11 09:20:54;;;;;;;11.05;10.55;;;;;;;;;;5071818;28;20020;-59
2023/08/11 09:23:19;;;;;;;11.20;10.70;;;;;;;;;;5073761;28;20373;-59
2023/08/11 09:25:45;;;;;;;11.57;11.07;;;;;;;;;;5071128;28;20031;-59
2023/08/11 09:28:11;;;;;;;11.20;10.70;;;;;;;;;;5071928;28;20272;-60
2023/08/11 09:30:36;;;;;;;11.60;11.10;;;;;;;;;;5073536;28;20024;-58
2023/08/11 09:33:02;;;;;;;11.15;10.65;;;;;;;;;;5072545;28;20031;-58
2023/08/11 09:35:27;;;;;;;11.30;10.80;;;;;;;;;;5070426;28;20086;-59
2023/08/11 09:37:53;;;;;;;11.30;10.80;;;;;;;;;;5070933;28;20021;-58
2023/08/11 09:40:21;;;;;;;11.32;10.82;;;;;;;;;;5070821;28;20080;-60
2023/08/11 09:42:46;;;;;;;11.30;10.80;;;;;;;;;;5069667;28;20043;-59
2023/08/11 09:45:11;;;;;;;11.20;10.70;;;;;;;;;;5068445;28;20464;-59
2023/08/11 09:47:37;;;;;;;11.00;10.50;;;;;;;;;;5070822;28;20264;-60
2023/08/11 09:50:03;;;;;;;11.00;10.50;;;;;;;;;;5069384;28;20700;-59
2023/08/11 09:52:29;;;;;;;11.38;10.88;;;;;;;;;;5071574;28;20031;-59
2023/08/11 09:54:55;;;;;;;11.00;10.50;;;;;;;;;;5073206;28;20025;-59
2023/08/11 09:57:21;;;;;;;11.40;10.90;;;;;;;;;;5070463;28;20024;-59
2023/08/11 09:59:47;;;;;;;11.23;10.73;;;;;;;;;;5073124;28;20028;-60
2023/08/11 10:02:19;;;;;;;11.48;10.98;;;;;;;;;;5072135;28;20024;-59
2023/08/11 10:04:56;;;;;;;11.68;11.18;;;;;;;;;;5070009;28;20529;-59
2023/08/11 10:07:24;;;;;;;11.52;11.02;;;;;;;;;;5072108;28;20039;-59
2023/08/11 10:09:50;;;;;;;11.40;10.90;;;;;;;;;;5070533;28;20013;-59
2023/08/11 10:12:16;;;;;;;11.60;11.10;;;;;;;;;;5070286;28;20032;-59
2023/08/11 10:14:42;;;;;;;11.98;11.48;;;;;;;;;;5070488;28;20023;-59
2023/08/11 10:17:07;;;;;;;11.52;11.02;;;;;;;;;;5071091;28;20025;-59
2023/08/11 10:19:32;;;;;;;11.63;11.13;;;;;;;;;;5070593;28;20028;-59
2023/08/11 10:21:58;;;;;;;11.25;10.75;;;;;;;;;;5070695;28;20369;-59
2023/08/11 10:24:24;;;;;;;11.38;10.88;;;;;;;;;;5070345;28;20031;-60
2023/08/11 10:26:50;;;;;;;11.65;11.15;;;;;;;;;;5069770;28;20028;-58
2023/08/11 10:29:15;;;;;;;10.95;10.45;;;;;;;;;;5070564;28;20039;-59
2023/08/11 10:31:53;;;;;;;10.68;10.18;;;;;;;;;;5069825;28;20082;-60
2023/08/11 10:34:21;;;;;;;11.20;10.70;;;;;;;;;;5071918;28;20479;-59
2023/08/11 10:36:46;;;;;;;10.90;10.40;;;;;;;;;;5071171;28;20085;-60
2023/08/11 10:39:16;;;;;;;10.85;10.35;;;;;;;;;;5069689;28;20471;-58
2023/08/11 10:41:44;;;;;;;11.20;10.70;;;;;;;;;;5069408;28;20028;-58
2023/08/11 10:44:09;;;;;;;11.10;10.60;;;;;;;;;;5071378;28;20036;-59
2023/08/11 10:46:35;;;;;;;11.40;10.90;;;;;;;;;;5069344;28;20103;-59
2023/08/11 10:49:07;;;;;;;11.02;10.52;;;;;;;;;;5063997;28;20033;-59
2023/08/11 10:51:39;;;;;;;11.18;10.68;;;;;;;;;;5068249;28;20044;-59
2023/08/11 10:54:11;;;;;;;11.40;10.90;;;;;;;;;;5069859;28;20024;-60
2023/08/11 10:56:40;;;;;;;11.35;10.85;;;;;;;;;;5069938;28;20024;-59
2023/08/11 10:59:05;;;;;;;11.45;10.95;;;;;;;;;;5071429;28;20021;-59
2023/08/11 11:01:33;;;;;;;10.90;10.40;;;;;;;;;;5071115;28;20025;-60
2023/08/11 11:03:59;;;;;;;11.02;10.52;;;;;;;;;;5070744;28;20455;-58
2023/08/11 11:06:25;;;;;;;11.40;10.90;;;;;;;;;;5071986;28;20027;-60
2023/08/11 11:08:50;;;;;;;11.52;11.02;;;;;;;;;;5071554;28;20016;-60
2023/08/11 11:11:15;;;;;;;11.23;10.73;;;;;;;;;;5071386;28;20048;-59
2023/08/11 11:13:41;;;;;;;11.43;10.93;;;;;;;;;;5071729;28;20675;-60
2023/08/11 11:16:06;;;;;;;11.55;11.05;;;;;;;;;;5070263;28;20138;-60
2023/08/11 11:18:31;;;;;;;11.05;10.55;;;;;;;;;;5069281;28;20029;-59
2023/08/11 11:20:59;;;;;;;11.43;10.93;;;;;;;;;;5071304;28;20176;-59
2023/08/11 11:23:24;;;;;;;11.23;10.73;;;;;;;;;;5072679;28;20078;-60
2023/08/11 11:25:49;;;;;;;11.30;10.80;;;;;;;;;;5069950;28;20419;-59
2023/08/11 11:28:15;;;;;;;11.80;11.30;;;;;;;;;;5070104;28;20336;-58
2023/08/11 11:30:40;;;;;;;11.07;10.57;;;;;;;;;;5069223;28;20692;-59
2023/08/11 11:33:07;;;;;;;12.10;11.60;;;;;;;;;;5071217;28;20020;-60
2023/08/11 11:35:32;;;;;;;11.45;10.95;;;;;;;;;;5071458;28;20020;-59
2023/08/11 11:37:58;;;;;;;11.30;10.80;;;;;;;;;;5075600;28;20067;-59
2023/08/11 11:40:24;;;;;;;11.30;10.80;;;;;;;;;;5075358;28;20435;-59
2023/08/11 11:42:49;;;;;;;11.93;11.43;;;;;;;;;;5072515;28;20021;-60
2023/08/11 11:45:14;;;;;;;11.40;10.90;;;;;;;;;;5070090;28;20074;-59
2023/08/11 11:47:40;;;;;;;11.10;10.60;;;;;;;;;;5071292;28;20021;-59
2023/08/11 11:50:07;;;;;;;11.45;10.95;;;;;;;;;;5070529;28;20020;-59
2023/08/11 11:52:33;;;;;;;11.45;10.95;;;;;;;;;;5072955;28;20035;-59
2023/08/11 11:54:58;;;;;;;11.23;10.73;;;;;;;;;;5071956;28;20012;-59
2023/08/11 11:57:23;;;;;;;11.13;10.63;;;;;;;;;;5072874;28;20032;-59
2023/08/11 11:59:53;;;;;;;11.32;10.82;;;;;;;;;;5075860;28;21669;-59
2023/08/11 12:02:18;;;;;;;11.55;11.05;;;;;;;;;;5075811;28;20107;-59
2023/08/11 12:04:44;;;;;;;11.70;11.20;;;;;;;;;;5074498;28;20108;-58
2023/08/11 12:07:09;;;;;;;11.20;10.70;;;;;;;;;;5072437;28;20023;-58
2023/08/11 12:09:53;;;;;;;11.40;10.90;;;;;;;;;;5073260;28;20024;-59
2023/08/11 12:12:19;;;;;;;11.00;10.50;;;;;;;;;;5074828;28;20039;-60
2023/08/11 12:14:44;;;;;;;11.40;10.90;;;;;;;;;;5072682;28;20024;-59
2023/08/11 12:17:09;;;;;;;11.30;10.80;;;;;;;;;;5073816;28;20028;-61
2023/08/11 12:19:35;;;;;;;11.50;11.00;;;;;;;;;;5072733;28;20071;-60
2023/08/11 12:22:01;;;;;;;11.67;11.17;;;;;;;;;;5071397;28;20399;-59
2023/08/11 12:24:26;;;;;;;11.45;10.95;;;;;;;;;;5073010;28;20052;-59
2023/08/11 12:26:51;;;;;;;11.35;10.85;;;;;;;;;;5073238;28;20020;-59
2023/08/11 12:29:16;;;;;;;11.50;11.00;;;;;;;;;;5074588;28;20012;-58
2023/08/11 12:31:42;;;;;;;11.30;10.80;;;;;;;;;;5072800;28;20293;-58
2023/08/11 12:34:07;;;;;;;10.97;10.47;;;;;;;;;;5073850;28;20032;-59
2023/08/11 12:36:32;;;;;;;11.27;10.77;;;;;;;;;;5074608;28;20273;-59
2023/08/11 12:38:57;;;;;;;11.50;11.00;;;;;;;;;;5069889;28;20357;-61
2023/08/11 12:41:23;;;;;;;11.30;10.80;;;;;;;;;;5074253;28;20468;-57
2023/08/11 12:43:48;;;;;;;11.38;10.88;;;;;;;;;;5074312;28;20250;-61
2023/08/11 12:46:14;;;;;;;11.20;10.70;;;;;;;;;;5073729;28;20050;-60
2023/08/11 12:48:39;;;;;;;11.98;11.48;;;;;;;;;;5069145;28;20597;-59
2023/08/11 12:51:05;;;;;;;11.43;10.93;;;;;;;;;;5074567;28;20093;-59
2023/08/11 12:53:30;;;;;;;11.50;11.00;;;;;;;;;;5071798;28;20100;-59
2023/08/11 12:55:56;;;;;;;11.23;10.73;;;;;;;;;;5071766;28;20060;-59
2023/08/11 12:58:21;;;;;;;10.82;10.32;;;;;;;;;;5073264;28;20087;-58
2023/08/11 13:00:46;;;;;;;11.23;10.73;;;;;;;;;;5074685;28;20664;-60
2023/08/11 13:03:12;;;;;;;11.20;10.70;;;;;;;;;;5067572;28;20040;-59
2023/08/11 13:05:37;;;;;;;11.32;10.82;;;;;;;;;;5051333;28;20047;-59
2023/08/11 13:08:03;;;;;;;11.57;11.07;;;;;;;;;;5054641;28;20020;-60
2023/08/11 13:10:28;;;;;;;11.30;10.80;;;;;;;;;;5056219;28;20388;-60
2023/08/11 13:12:54;;;;;;;11.50;11.00;;;;;;;;;;5058760;28;20394;-59
2023/08/11 13:15:19;;;;;;;11.70;11.20;;;;;;;;;;5065663;28;20025;-60
2023/08/11 13:17:45;;;;;;;11.63;11.13;;;;;;;;;;5059411;28;20467;-61
2023/08/11 13:20:12;;;;;;;11.43;10.93;;;;;;;;;;5058318;28;20081;-61
2023/08/11 13:22:37;;;;;;;11.18;10.68;;;;;;;;;;5055221;28;20025;-59
2023/08/11 13:25:02;;;;;;;10.98;10.48;;;;;;;;;;5055101;28;20021;-59
2023/08/11 13:27:28;;;;;;;11.25;10.75;;;;;;;;;;5065270;28;20033;-59
2023/08/11 13:29:53;;;;;;;11.15;10.65;;;;;;;;;;5058430;28;20029;-59
2023/08/11 13:32:18;;;;;;;11.98;11.48;;;;;;;;;;5057624;28;20016;-58
2023/08/11 13:34:43;;;;;;;11.48;10.98;;;;;;;;;;5055872;28;20432;-59
2023/08/11 13:37:09;;;;;;;11.35;10.85;;;;;;;;;;5054199;28;20021;-59
2023/08/11 13:39:34;;;;;;;11.13;10.63;;;;;;;;;;5055593;28;20017;-59
2023/08/11 13:41:59;;;;;;;11.60;11.10;;;;;;;;;;5054799;28;20052;-59
2023/08/11 13:44:25;;;;;;;11.30;10.80;;;;;;;;;;5058394;28;20023;-58
2023/08/11 13:46:50;;;;;;;11.38;10.88;;;;;;;;;;5053370;28;20289;-59
2023/08/11 13:49:15;;;;;;;11.80;11.30;;;;;;;;;;5056300;28;20021;-59
2023/08/11 13:51:41;;;;;;;11.07;10.57;;;;;;;;;;5051741;28;20419;-59
2023/08/11 13:54:06;;;;;;;10.95;10.45;;;;;;;;;;5057833;28;20364;-60
2023/08/11 13:56:34;;;;;;;11.60;11.10;;;;;;;;;;5055969;28;20490;-59
2023/08/11 13:59:01;;;;;;;11.23;10.73;;;;;;;;;;5050735;28;20718;-60
2023/08/11 14:01:26;;;;;;;11.32;10.82;;;;;;;;;;5051897;28;20531;-58
2023/08/11 14:03:51;;;;;;;11.65;11.15;;;;;;;;;;5066395;28;20060;-58
2023/08/11 14:06:17;;;;;;;11.70;11.20;;;;;;;;;;5064277;28;20460;-58
2023/08/11 14:08:43;;;;;;;12.20;11.65;;;;;;;;;;5069339;28;20039;-58